Forside
METAR-TAF:

METAR-TAF

Lufthavne :

Aktau, Kasakhstan

Breddekreds: 43-52-12N, længdekreds: 051-06E, højde: 22 m

Aktuelle vejr

Denne rapport blev lavet for 13 timer og 42 minutter siden, kl. 12:30 UTC
Vind 16 kt fra øst
Temperatur 9°C
Fugtighed 18%
Tryk 1027 hPa
Sigt 10 km eller mere
ingen skyer under 1500m og ingen cumulonimbus

METAR: UATE 161230Z 10008MPS CAVOK 09/M14 Q1027 R12/0///70 NOSIG RMK QFE768/1024

Tid: 07:12 (02:12 UTC)

Vejrudsigter

Denne rapport blev lavet for 15 timer og 6 minutter siden, kl. 11:06 UTC
Foreløbig gælder fra 16 på 12 UTC til 17 på 12 UTC
Vind 16 kt fra øst med vindstød på up til 27 kt
Sigt 10 km eller mere
ingen skyer under 1500m og ingen cumulonimbus

TAF: UATE 161106Z 1612/1712 10008G14MPS CAVOK TX10/1709Z TN00/1702Z

Vejrobservationer og prognoser fra mere end 4000 lufthavne (METAR og TAF).

De gule og røde prikker repræsenterer de meteorologiske stationer.

Flyt musen over at se navnet på stationen.

Så klik over at se vejr observationer og prognoser.

At skifte det kort: Klik på de grønne knapper med et sort kors for at zoome ind; på den grønne knap med en bindestreg for at zoome ud; eller på de grønne pile for tilstødende kort.


METAR-TAF: